sensor_id;sensor_type;location;lat;lon;timestamp;P1;durP1;ratioP1;P2;durP2;ratioP2
69410;SDS011;56604;48.652;9.194;2023-09-12T00:00:50;21.97;;;9.00;;
69410;SDS011;56604;48.652;9.194;2023-09-12T00:03:18;23.07;;;9.30;;
69410;SDS011;56604;48.652;9.194;2023-09-12T00:05:50;17.70;;;9.60;;
69410;SDS011;56604;48.652;9.194;2023-09-12T00:08:18;17.17;;;9.50;;
69410;SDS011;56604;48.652;9.194;2023-09-12T00:10:44;15.30;;;8.93;;
69410;SDS011;56604;48.652;9.194;2023-09-12T00:13:09;16.73;;;9.43;;
69410;SDS011;56604;48.652;9.194;2023-09-12T00:15:34;12.50;;;9.80;;
69410;SDS011;56604;48.652;9.194;2023-09-12T00:18:00;19.73;;;10.10;;
69410;SDS011;56604;48.652;9.194;2023-09-12T00:20:25;17.20;;;10.90;;
69410;SDS011;56604;48.652;9.194;2023-09-12T00:22:50;20.27;;;10.23;;
69410;SDS011;56604;48.652;9.194;2023-09-12T00:25:18;28.87;;;9.90;;
69410;SDS011;56604;48.652;9.194;2023-09-12T00:27:43;25.57;;;10.00;;
69410;SDS011;56604;48.652;9.194;2023-09-12T00:30:09;19.77;;;10.40;;
69410;SDS011;56604;48.652;9.194;2023-09-12T00:32:34;21.33;;;10.60;;
69410;SDS011;56604;48.652;9.194;2023-09-12T00:34:59;18.43;;;9.77;;
69410;SDS011;56604;48.652;9.194;2023-09-12T00:37:25;19.83;;;9.83;;
69410;SDS011;56604;48.652;9.194;2023-09-12T00:39:50;21.50;;;10.07;;
69410;SDS011;56604;48.652;9.194;2023-09-12T00:42:15;19.20;;;9.37;;
69410;SDS011;56604;48.652;9.194;2023-09-12T00:44:41;18.57;;;9.73;;
69410;SDS011;56604;48.652;9.194;2023-09-12T00:47:06;19.60;;;10.17;;
69410;SDS011;56604;48.652;9.194;2023-09-12T00:49:31;18.50;;;9.60;;
69410;SDS011;56604;48.652;9.194;2023-09-12T00:51:57;22.33;;;10.00;;
69410;SDS011;56604;48.652;9.194;2023-09-12T00:54:23;24.70;;;10.70;;
69410;SDS011;56604;48.652;9.194;2023-09-12T00:56:49;15.57;;;9.40;;
69410;SDS011;56604;48.652;9.194;2023-09-12T00:59:15;15.40;;;9.40;;
69410;SDS011;56604;48.652;9.194;2023-09-12T01:01:42;18.03;;;10.20;;
69410;SDS011;56604;48.652;9.194;2023-09-12T01:04:07;19.53;;;10.10;;
69410;SDS011;56604;48.652;9.194;2023-09-12T01:06:34;18.43;;;9.57;;
69410;SDS011;56604;48.652;9.194;2023-09-12T01:09:00;18.90;;;9.70;;
69410;SDS011;56604;48.652;9.194;2023-09-12T01:11:26;13.40;;;9.80;;
69410;SDS011;56604;48.652;9.194;2023-09-12T01:13:52;25.83;;;9.23;;
69410;SDS011;56604;48.652;9.194;2023-09-12T01:16:17;29.60;;;9.60;;
69410;SDS011;56604;48.652;9.194;2023-09-12T01:18:42;15.47;;;9.63;;
69410;SDS011;56604;48.652;9.194;2023-09-12T01:27:26;17.40;;;8.43;;
69410;SDS011;56604;48.652;9.194;2023-09-12T01:29:56;17.93;;;7.53;;
69410;SDS011;56604;48.652;9.194;2023-09-12T01:32:24;13.73;;;8.77;;
69410;SDS011;56604;48.652;9.194;2023-09-12T01:34:49;16.87;;;8.40;;
69410;SDS011;56604;48.652;9.194;2023-09-12T01:37:15;22.53;;;9.00;;
69410;SDS011;56604;48.652;9.194;2023-09-12T01:39:40;16.93;;;8.60;;
69410;SDS011;56604;48.652;9.194;2023-09-12T01:42:06;29.97;;;9.27;;
69410;SDS011;56604;48.652;9.194;2023-09-12T01:44:35;18.20;;;9.23;;
69410;SDS011;56604;48.652;9.194;2023-09-12T01:47:03;22.83;;;9.97;;
69410;SDS011;56604;48.652;9.194;2023-09-12T01:49:29;23.83;;;9.70;;
69410;SDS011;56604;48.652;9.194;2023-09-12T01:51:57;24.13;;;9.17;;
69410;SDS011;56604;48.652;9.194;2023-09-12T01:54:24;19.80;;;8.60;;
69410;SDS011;56604;48.652;9.194;2023-09-12T01:56:52;19.37;;;8.60;;
69410;SDS011;56604;48.652;9.194;2023-09-12T01:59:22;18.07;;;9.13;;
69410;SDS011;56604;48.652;9.194;2023-09-12T02:01:47;28.83;;;9.40;;
69410;SDS011;56604;48.652;9.194;2023-09-12T02:04:13;16.37;;;9.20;;
69410;SDS011;56604;48.652;9.194;2023-09-12T02:06:38;18.10;;;10.67;;
69410;SDS011;56604;48.652;9.194;2023-09-12T02:09:03;11.47;;;8.47;;
69410;SDS011;56604;48.652;9.194;2023-09-12T02:11:29;21.57;;;9.53;;
69410;SDS011;56604;48.652;9.194;2023-09-12T02:13:54;25.13;;;9.93;;
69410;SDS011;56604;48.652;9.194;2023-09-12T02:16:19;34.03;;;9.60;;
69410;SDS011;56604;48.652;9.194;2023-09-12T02:18:45;17.50;;;9.70;;
69410;SDS011;56604;48.652;9.194;2023-09-12T02:21:10;19.03;;;10.07;;
69410;SDS011;56604;48.652;9.194;2023-09-12T02:23:35;18.90;;;10.03;;
69410;SDS011;56604;48.652;9.194;2023-09-12T02:26:01;15.33;;;9.63;;
69410;SDS011;56604;48.652;9.194;2023-09-12T02:28:26;17.00;;;9.50;;
69410;SDS011;56604;48.652;9.194;2023-09-12T02:30:51;17.30;;;9.20;;
69410;SDS011;56604;48.652;9.194;2023-09-12T02:33:17;10.27;;;9.00;;
69410;SDS011;56604;48.652;9.194;2023-09-12T02:35:42;21.60;;;9.37;;
69410;SDS011;56604;48.652;9.194;2023-09-12T02:38:07;19.10;;;9.20;;
69410;SDS011;56604;48.652;9.194;2023-09-12T02:40:33;20.67;;;9.40;;
69410;SDS011;56604;48.652;9.194;2023-09-12T02:42:58;21.10;;;9.20;;
69410;SDS011;56604;48.652;9.194;2023-09-12T02:45:23;24.07;;;8.83;;
69410;SDS011;56604;48.652;9.194;2023-09-12T02:47:49;21.17;;;9.23;;
69410;SDS011;56604;48.652;9.194;2023-09-12T02:50:14;27.03;;;9.30;;
69410;SDS011;56604;48.652;9.194;2023-09-12T02:52:39;14.97;;;9.00;;
69410;SDS011;56604;48.652;9.194;2023-09-12T02:55:05;21.77;;;9.90;;
69410;SDS011;56604;48.652;9.194;2023-09-12T02:57:30;17.63;;;9.90;;
69410;SDS011;56604;48.652;9.194;2023-09-12T02:59:56;25.60;;;9.50;;
69410;SDS011;56604;48.652;9.194;2023-09-12T03:02:21;20.37;;;9.53;;
69410;SDS011;56604;48.652;9.194;2023-09-12T03:04:47;22.30;;;9.17;;
69410;SDS011;56604;48.652;9.194;2023-09-12T03:07:12;24.10;;;9.83;;
69410;SDS011;56604;48.652;9.194;2023-09-12T03:09:37;14.13;;;8.60;;
69410;SDS011;56604;48.652;9.194;2023-09-12T03:12:03;29.70;;;10.37;;
69410;SDS011;56604;48.652;9.194;2023-09-12T03:14:29;20.53;;;9.23;;
69410;SDS011;56604;48.652;9.194;2023-09-12T03:16:55;17.13;;;9.20;;
69410;SDS011;56604;48.652;9.194;2023-09-12T03:19:21;21.33;;;10.40;;
69410;SDS011;56604;48.652;9.194;2023-09-12T03:21:46;20.43;;;10.53;;
69410;SDS011;56604;48.652;9.194;2023-09-12T03:24:11;16.57;;;9.50;;
69410;SDS011;56604;48.652;9.194;2023-09-12T03:26:37;21.00;;;10.50;;
69410;SDS011;56604;48.652;9.194;2023-09-12T03:29:03;25.20;;;10.60;;
69410;SDS011;56604;48.652;9.194;2023-09-12T03:31:29;23.80;;;10.50;;
69410;SDS011;56604;48.652;9.194;2023-09-12T03:33:54;26.23;;;11.50;;
69410;SDS011;56604;48.652;9.194;2023-09-12T03:36:19;23.57;;;10.50;;
69410;SDS011;56604;48.652;9.194;2023-09-12T03:38:45;25.77;;;11.20;;
69410;SDS011;56604;48.652;9.194;2023-09-12T03:41:10;18.03;;;10.70;;
69410;SDS011;56604;48.652;9.194;2023-09-12T03:43:36;36.40;;;11.07;;
69410;SDS011;56604;48.652;9.194;2023-09-12T03:46:02;17.03;;;10.10;;
69410;SDS011;56604;48.652;9.194;2023-09-12T03:48:28;15.17;;;10.50;;
69410;SDS011;56604;48.652;9.194;2023-09-12T03:50:55;22.43;;;10.73;;
69410;SDS011;56604;48.652;9.194;2023-09-12T03:53:21;19.63;;;10.83;;
69410;SDS011;56604;48.652;9.194;2023-09-12T03:55:46;37.57;;;10.57;;
69410;SDS011;56604;48.652;9.194;2023-09-12T03:58:12;15.93;;;10.67;;
69410;SDS011;56604;48.652;9.194;2023-09-12T04:00:37;22.30;;;10.73;;
69410;SDS011;56604;48.652;9.194;2023-09-12T04:03:02;24.20;;;10.40;;
69410;SDS011;56604;48.652;9.194;2023-09-12T04:05:28;24.80;;;10.40;;
69410;SDS011;56604;48.652;9.194;2023-09-12T04:07:53;25.03;;;10.50;;
69410;SDS011;56604;48.652;9.194;2023-09-12T04:10:22;17.20;;;11.37;;
69410;SDS011;56604;48.652;9.194;2023-09-12T04:12:47;15.50;;;11.10;;
69410;SDS011;56604;48.652;9.194;2023-09-12T04:15:13;18.50;;;10.23;;
69410;SDS011;56604;48.652;9.194;2023-09-12T04:17:38;13.97;;;10.80;;
69410;SDS011;56604;48.652;9.194;2023-09-12T04:20:03;19.90;;;10.67;;
69410;SDS011;56604;48.652;9.194;2023-09-12T04:22:29;19.40;;;12.07;;
69410;SDS011;56604;48.652;9.194;2023-09-12T04:24:55;21.90;;;11.77;;
69410;SDS011;56604;48.652;9.194;2023-09-12T04:27:20;25.13;;;11.77;;
69410;SDS011;56604;48.652;9.194;2023-09-12T04:29:45;17.90;;;10.80;;
69410;SDS011;56604;48.652;9.194;2023-09-12T04:32:11;18.77;;;11.10;;
69410;SDS011;56604;48.652;9.194;2023-09-12T04:34:36;25.37;;;11.93;;
69410;SDS011;56604;48.652;9.194;2023-09-12T04:37:02;20.30;;;11.93;;
69410;SDS011;56604;48.652;9.194;2023-09-12T04:39:27;16.97;;;10.67;;
69410;SDS011;56604;48.652;9.194;2023-09-12T04:41:53;26.57;;;11.50;;
69410;SDS011;56604;48.652;9.194;2023-09-12T04:44:18;17.80;;;10.83;;
69410;SDS011;56604;48.652;9.194;2023-09-12T04:46:43;18.33;;;10.83;;
69410;SDS011;56604;48.652;9.194;2023-09-12T04:49:09;18.13;;;10.77;;
69410;SDS011;56604;48.652;9.194;2023-09-12T04:51:34;18.73;;;10.67;;
69410;SDS011;56604;48.652;9.194;2023-09-12T04:54:00;24.40;;;11.03;;
69410;SDS011;56604;48.652;9.194;2023-09-12T04:56:25;17.93;;;11.23;;
69410;SDS011;56604;48.652;9.194;2023-09-12T04:58:50;15.83;;;11.20;;
69410;SDS011;56604;48.652;9.194;2023-09-12T05:01:16;23.77;;;11.60;;
69410;SDS011;56604;48.652;9.194;2023-09-12T05:03:42;20.57;;;10.60;;
69410;SDS011;56604;48.652;9.194;2023-09-12T05:06:07;25.50;;;12.27;;
69410;SDS011;56604;48.652;9.194;2023-09-12T05:08:32;19.67;;;11.13;;
69410;SDS011;56604;48.652;9.194;2023-09-12T05:10:58;18.23;;;10.50;;
69410;SDS011;56604;48.652;9.194;2023-09-12T05:13:23;15.13;;;11.10;;
69410;SDS011;56604;48.652;9.194;2023-09-12T05:15:48;22.60;;;11.30;;
69410;SDS011;56604;48.652;9.194;2023-09-12T05:18:14;20.47;;;10.77;;
69410;SDS011;56604;48.652;9.194;2023-09-12T05:20:39;18.07;;;10.60;;
69410;SDS011;56604;48.652;9.194;2023-09-12T05:23:05;24.10;;;11.23;;
69410;SDS011;56604;48.652;9.194;2023-09-12T05:25:30;16.90;;;10.20;;
69410;SDS011;56604;48.652;9.194;2023-09-12T05:27:56;22.60;;;9.87;;
69410;SDS011;56604;48.652;9.194;2023-09-12T05:30:21;17.67;;;10.43;;
69410;SDS011;56604;48.652;9.194;2023-09-12T05:32:47;21.27;;;10.20;;
69410;SDS011;56604;48.652;9.194;2023-09-12T05:35:12;13.10;;;9.37;;
69410;SDS011;56604;48.652;9.194;2023-09-12T05:37:37;18.03;;;9.70;;
69410;SDS011;56604;48.652;9.194;2023-09-12T05:40:03;24.17;;;10.60;;
69410;SDS011;56604;48.652;9.194;2023-09-12T05:42:29;23.67;;;10.97;;
69410;SDS011;56604;48.652;9.194;2023-09-12T05:44:54;28.00;;;10.70;;
69410;SDS011;56604;48.652;9.194;2023-09-12T05:47:21;16.10;;;10.03;;
69410;SDS011;56604;48.652;9.194;2023-09-12T05:49:46;13.53;;;9.00;;
69410;SDS011;56604;48.652;9.194;2023-09-12T05:52:12;22.33;;;9.90;;
69410;SDS011;56604;48.652;9.194;2023-09-12T05:54:38;10.63;;;9.47;;
69410;SDS011;56604;48.652;9.194;2023-09-12T05:57:05;16.00;;;9.83;;
69410;SDS011;56604;48.652;9.194;2023-09-12T05:59:31;20.77;;;8.63;;
69410;SDS011;56604;48.652;9.194;2023-09-12T06:01:56;25.10;;;9.60;;
69410;SDS011;56604;48.652;9.194;2023-09-12T06:04:22;17.20;;;9.60;;
69410;SDS011;56604;48.652;9.194;2023-09-12T06:06:47;19.60;;;8.67;;
69410;SDS011;56604;48.652;9.194;2023-09-12T06:09:12;13.03;;;7.97;;
69410;SDS011;56604;48.652;9.194;2023-09-12T06:11:38;14.17;;;8.70;;
69410;SDS011;56604;48.652;9.194;2023-09-12T06:14:03;11.03;;;8.30;;
69410;SDS011;56604;48.652;9.194;2023-09-12T06:16:29;16.07;;;7.60;;
69410;SDS011;56604;48.652;9.194;2023-09-12T06:18:54;19.00;;;8.80;;
69410;SDS011;56604;48.652;9.194;2023-09-12T06:21:20;12.10;;;9.20;;
69410;SDS011;56604;48.652;9.194;2023-09-12T06:23:46;17.57;;;9.47;;
69410;SDS011;56604;48.652;9.194;2023-09-12T06:26:12;17.40;;;8.17;;
69410;SDS011;56604;48.652;9.194;2023-09-12T06:28:37;11.60;;;8.80;;
69410;SDS011;56604;48.652;9.194;2023-09-12T06:31:03;12.83;;;9.03;;
69410;SDS011;56604;48.652;9.194;2023-09-12T06:33:28;20.70;;;9.27;;
69410;SDS011;56604;48.652;9.194;2023-09-12T06:35:53;13.70;;;9.13;;
69410;SDS011;56604;48.652;9.194;2023-09-12T06:38:20;12.70;;;8.80;;
69410;SDS011;56604;48.652;9.194;2023-09-12T06:40:46;12.17;;;9.37;;
69410;SDS011;56604;48.652;9.194;2023-09-12T06:43:12;19.27;;;10.73;;
69410;SDS011;56604;48.652;9.194;2023-09-12T06:45:38;20.10;;;9.30;;
69410;SDS011;56604;48.652;9.194;2023-09-12T06:48:03;12.23;;;9.40;;
69410;SDS011;56604;48.652;9.194;2023-09-12T06:50:29;19.53;;;10.10;;
69410;SDS011;56604;48.652;9.194;2023-09-12T06:52:54;12.90;;;9.33;;
69410;SDS011;56604;48.652;9.194;2023-09-12T06:55:20;19.27;;;9.57;;
69410;SDS011;56604;48.652;9.194;2023-09-12T06:57:45;14.57;;;9.20;;
69410;SDS011;56604;48.652;9.194;2023-09-12T07:00:11;17.00;;;9.57;;
69410;SDS011;56604;48.652;9.194;2023-09-12T07:02:37;17.90;;;9.43;;
69410;SDS011;56604;48.652;9.194;2023-09-12T07:05:03;20.70;;;10.07;;
69410;SDS011;56604;48.652;9.194;2023-09-12T07:07:29;27.13;;;10.07;;
69410;SDS011;56604;48.652;9.194;2023-09-12T07:09:55;18.13;;;10.60;;
69410;SDS011;56604;48.652;9.194;2023-09-12T07:12:20;13.30;;;9.57;;
69410;SDS011;56604;48.652;9.194;2023-09-12T07:14:45;17.20;;;9.63;;
69410;SDS011;56604;48.652;9.194;2023-09-12T07:17:11;12.43;;;10.20;;
69410;SDS011;56604;48.652;9.194;2023-09-12T07:19:36;12.50;;;9.87;;
69410;SDS011;56604;48.652;9.194;2023-09-12T07:22:01;16.63;;;10.53;;
69410;SDS011;56604;48.652;9.194;2023-09-12T07:24:27;12.20;;;9.60;;
69410;SDS011;56604;48.652;9.194;2023-09-12T07:26:52;11.80;;;8.87;;
69410;SDS011;56604;48.652;9.194;2023-09-12T07:29:18;13.40;;;10.40;;
69410;SDS011;56604;48.652;9.194;2023-09-12T07:31:43;11.00;;;8.33;;
69410;SDS011;56604;48.652;9.194;2023-09-12T07:34:09;20.23;;;9.30;;
69410;SDS011;56604;48.652;9.194;2023-09-12T07:36:35;12.07;;;9.73;;
69410;SDS011;56604;48.652;9.194;2023-09-12T07:39:01;11.83;;;9.27;;
69410;SDS011;56604;48.652;9.194;2023-09-12T07:41:26;16.03;;;8.70;;
69410;SDS011;56604;48.652;9.194;2023-09-12T07:43:52;14.90;;;9.23;;
69410;SDS011;56604;48.652;9.194;2023-09-12T07:46:17;14.37;;;9.30;;
69410;SDS011;56604;48.652;9.194;2023-09-12T07:48:42;15.57;;;8.60;;
69410;SDS011;56604;48.652;9.194;2023-09-12T07:51:11;11.43;;;8.40;;
69410;SDS011;56604;48.652;9.194;2023-09-12T07:53:42;10.23;;;9.23;;
69410;SDS011;56604;48.652;9.194;2023-09-12T07:56:08;10.23;;;9.17;;
69410;SDS011;56604;48.652;9.194;2023-09-12T07:58:35;9.73;;;8.70;;
69410;SDS011;56604;48.652;9.194;2023-09-12T08:01:04;18.93;;;8.80;;
69410;SDS011;56604;48.652;9.194;2023-09-12T08:03:33;12.23;;;8.30;;
69410;SDS011;56604;48.652;9.194;2023-09-12T08:06:00;9.63;;;8.63;;
69410;SDS011;56604;48.652;9.194;2023-09-12T08:08:25;9.47;;;8.50;;
69410;SDS011;56604;48.652;9.194;2023-09-12T08:10:50;10.60;;;8.13;;
69410;SDS011;56604;48.652;9.194;2023-09-12T08:13:16;9.23;;;8.03;;
69410;SDS011;56604;48.652;9.194;2023-09-12T08:15:41;9.07;;;8.17;;
69410;SDS011;56604;48.652;9.194;2023-09-12T08:18:06;13.10;;;9.00;;
69410;SDS011;56604;48.652;9.194;2023-09-12T08:20:32;8.93;;;8.03;;
69410;SDS011;56604;48.652;9.194;2023-09-12T08:22:57;16.83;;;8.80;;
69410;SDS011;56604;48.652;9.194;2023-09-12T08:25:22;9.90;;;8.20;;
69410;SDS011;56604;48.652;9.194;2023-09-12T08:27:49;15.70;;;8.33;;
69410;SDS011;56604;48.652;9.194;2023-09-12T08:30:15;11.23;;;8.80;;
69410;SDS011;56604;48.652;9.194;2023-09-12T08:32:40;13.10;;;8.13;;
69410;SDS011;56604;48.652;9.194;2023-09-12T08:35:09;8.97;;;8.07;;
69410;SDS011;56604;48.652;9.194;2023-09-12T08:37:35;9.27;;;7.90;;
69410;SDS011;56604;48.652;9.194;2023-09-12T08:40:01;10.30;;;9.00;;
69410;SDS011;56604;48.652;9.194;2023-09-12T08:42:26;11.67;;;9.20;;
69410;SDS011;56604;48.652;9.194;2023-09-12T08:44:53;9.37;;;8.40;;
69410;SDS011;56604;48.652;9.194;2023-09-12T08:47:19;8.73;;;7.80;;
69410;SDS011;56604;48.652;9.194;2023-09-12T08:49:47;8.63;;;7.37;;
69410;SDS011;56604;48.652;9.194;2023-09-12T08:52:13;9.30;;;7.80;;
69410;SDS011;56604;48.652;9.194;2023-09-12T08:54:38;11.45;;;7.72;;
69410;SDS011;56604;48.652;9.194;2023-09-12T08:57:04;9.70;;;8.27;;
69410;SDS011;56604;48.652;9.194;2023-09-12T08:59:34;9.77;;;7.40;;
69410;SDS011;56604;48.652;9.194;2023-09-12T09:02:00;8.65;;;7.80;;
69410;SDS011;56604;48.652;9.194;2023-09-12T09:04:27;11.20;;;7.95;;
69410;SDS011;56604;48.652;9.194;2023-09-12T09:06:55;8.18;;;7.47;;
69410;SDS011;56604;48.652;9.194;2023-09-12T09:09:22;8.55;;;7.80;;
69410;SDS011;56604;48.652;9.194;2023-09-12T09:11:49;8.38;;;7.40;;
69410;SDS011;56604;48.652;9.194;2023-09-12T09:14:14;10.25;;;7.50;;
69410;SDS011;56604;48.652;9.194;2023-09-12T09:16:40;9.75;;;7.43;;
69410;SDS011;56604;48.652;9.194;2023-09-12T09:19:06;10.18;;;7.60;;
69410;SDS011;56604;48.652;9.194;2023-09-12T09:21:35;8.00;;;7.20;;
69410;SDS011;56604;48.652;9.194;2023-09-12T09:24:04;9.43;;;7.95;;
69410;SDS011;56604;48.652;9.194;2023-09-12T09:26:42;14.35;;;7.60;;
69410;SDS011;56604;48.652;9.194;2023-09-12T09:29:19;9.20;;;7.20;;
69410;SDS011;56604;48.652;9.194;2023-09-12T09:31:46;7.18;;;6.50;;
69410;SDS011;56604;48.652;9.194;2023-09-12T09:34:13;7.80;;;7.00;;
69410;SDS011;56604;48.652;9.194;2023-09-12T09:36:52;11.80;;;6.45;;
69410;SDS011;56604;48.652;9.194;2023-09-12T09:39:20;12.77;;;7.28;;
69410;SDS011;56604;48.652;9.194;2023-09-12T09:41:55;9.38;;;6.68;;
69410;SDS011;56604;48.652;9.194;2023-09-12T09:44:22;9.43;;;7.15;;
69410;SDS011;56604;48.652;9.194;2023-09-12T09:46:51;15.43;;;7.15;;
69410;SDS011;56604;48.652;9.194;2023-09-12T09:49:25;9.43;;;7.20;;
69410;SDS011;56604;48.652;9.194;2023-09-12T09:51:50;11.20;;;7.60;;
69410;SDS011;56604;48.652;9.194;2023-09-12T09:54:19;10.35;;;8.73;;
69410;SDS011;56604;48.652;9.194;2023-09-12T09:56:50;11.02;;;8.63;;
69410;SDS011;56604;48.652;9.194;2023-09-12T09:59:19;9.63;;;8.10;;
69410;SDS011;56604;48.652;9.194;2023-09-12T10:01:46;9.98;;;8.30;;
69410;SDS011;56604;48.652;9.194;2023-09-12T10:04:14;7.75;;;7.13;;
69410;SDS011;56604;48.652;9.194;2023-09-12T10:06:41;10.50;;;8.10;;
69410;SDS011;56604;48.652;9.194;2023-09-12T10:09:10;10.05;;;8.00;;
69410;SDS011;56604;48.652;9.194;2023-09-12T10:11:39;9.90;;;8.27;;
69410;SDS011;56604;48.652;9.194;2023-09-12T10:14:06;10.70;;;7.70;;
69410;SDS011;56604;48.652;9.194;2023-09-12T10:16:39;14.50;;;8.20;;
69410;SDS011;56604;48.652;9.194;2023-09-12T10:19:20;9.27;;;7.32;;
69410;SDS011;56604;48.652;9.194;2023-09-12T10:24:33;10.60;;;8.13;;
69410;SDS011;56604;48.652;9.194;2023-09-12T10:27:00;10.73;;;8.98;;
69410;SDS011;56604;48.652;9.194;2023-09-12T10:29:27;9.27;;;7.57;;
69410;SDS011;56604;48.652;9.194;2023-09-12T10:31:52;8.52;;;7.07;;
69410;SDS011;56604;48.652;9.194;2023-09-12T10:34:18;10.70;;;6.93;;
69410;SDS011;56604;48.652;9.194;2023-09-12T10:36:45;12.30;;;6.93;;
69410;SDS011;56604;48.652;9.194;2023-09-12T10:39:12;10.50;;;6.80;;
69410;SDS011;56604;48.652;9.194;2023-09-12T10:41:39;11.50;;;7.18;;
69410;SDS011;56604;48.652;9.194;2023-09-12T10:44:17;8.65;;;7.70;;
69410;SDS011;56604;48.652;9.194;2023-09-12T10:46:43;7.15;;;6.45;;
69410;SDS011;56604;48.652;9.194;2023-09-12T10:49:11;8.38;;;5.85;;
69410;SDS011;56604;48.652;9.194;2023-09-12T10:51:39;7.22;;;6.57;;
69410;SDS011;56604;48.652;9.194;2023-09-12T10:54:06;9.30;;;6.75;;
69410;SDS011;56604;48.652;9.194;2023-09-12T10:56:35;10.55;;;7.45;;
69410;SDS011;56604;48.652;9.194;2023-09-12T11:01:35;10.13;;;6.47;;
69410;SDS011;56604;48.652;9.194;2023-09-12T11:04:29;15.02;;;6.82;;
69410;SDS011;56604;48.652;9.194;2023-09-12T11:06:53;10.27;;;6.28;;
69410;SDS011;56604;48.652;9.194;2023-09-12T11:09:22;7.18;;;6.57;;
69410;SDS011;56604;48.652;9.194;2023-09-12T11:11:49;10.27;;;6.07;;
69410;SDS011;56604;48.652;9.194;2023-09-12T11:14:21;12.05;;;5.97;;
69410;SDS011;56604;48.652;9.194;2023-09-12T11:19:51;8.30;;;5.95;;
69410;SDS011;56604;48.652;9.194;2023-09-12T11:22:26;12.18;;;6.18;;
69410;SDS011;56604;48.652;9.194;2023-09-12T11:25:03;9.90;;;7.47;;
69410;SDS011;56604;48.652;9.194;2023-09-12T11:27:31;11.30;;;6.80;;
69410;SDS011;56604;48.652;9.194;2023-09-12T11:30:20;7.13;;;6.20;;
69410;SDS011;56604;48.652;9.194;2023-09-12T11:32:47;7.60;;;6.80;;
69410;SDS011;56604;48.652;9.194;2023-09-12T11:35:17;7.22;;;6.50;;
69410;SDS011;56604;48.652;9.194;2023-09-12T11:37:52;7.03;;;6.43;;
69410;SDS011;56604;48.652;9.194;2023-09-12T11:42:57;10.23;;;6.10;;
69410;SDS011;56604;48.652;9.194;2023-09-12T11:45:22;8.50;;;6.33;;
69410;SDS011;56604;48.652;9.194;2023-09-12T11:47:48;7.63;;;6.90;;
69410;SDS011;56604;48.652;9.194;2023-09-12T11:53:04;11.32;;;5.53;;
69410;SDS011;56604;48.652;9.194;2023-09-12T11:55:34;8.80;;;6.47;;
69410;SDS011;56604;48.652;9.194;2023-09-12T11:58:10;9.48;;;6.68;;
69410;SDS011;56604;48.652;9.194;2023-09-12T12:00:36;7.63;;;6.32;;
69410;SDS011;56604;48.652;9.194;2023-09-12T12:03:02;8.27;;;5.82;;
69410;SDS011;56604;48.652;9.194;2023-09-12T12:05:29;7.47;;;5.60;;
69410;SDS011;56604;48.652;9.194;2023-09-12T12:07:54;12.43;;;6.15;;
69410;SDS011;56604;48.652;9.194;2023-09-12T12:10:19;7.47;;;6.10;;
69410;SDS011;56604;48.652;9.194;2023-09-12T12:12:45;13.13;;;6.00;;
69410;SDS011;56604;48.652;9.194;2023-09-12T12:15:13;8.40;;;6.63;;
69410;SDS011;56604;48.652;9.194;2023-09-12T12:17:41;17.97;;;8.37;;
69410;SDS011;56604;48.652;9.194;2023-09-12T12:20:08;9.93;;;7.40;;
69410;SDS011;56604;48.652;9.194;2023-09-12T12:22:36;16.67;;;8.00;;
69410;SDS011;56604;48.652;9.194;2023-09-12T12:25:07;15.17;;;7.20;;
69410;SDS011;56604;48.652;9.194;2023-09-12T12:27:41;12.10;;;7.27;;
69410;SDS011;56604;48.652;9.194;2023-09-12T12:30:07;8.13;;;7.33;;
69410;SDS011;56604;48.652;9.194;2023-09-12T12:32:34;18.03;;;7.50;;
69410;SDS011;56604;48.652;9.194;2023-09-12T12:35:04;8.30;;;7.47;;
69410;SDS011;56604;48.652;9.194;2023-09-12T12:37:30;14.10;;;7.60;;
69410;SDS011;56604;48.652;9.194;2023-09-12T12:39:56;9.50;;;7.60;;
69410;SDS011;56604;48.652;9.194;2023-09-12T12:42:21;12.70;;;6.93;;
69410;SDS011;56604;48.652;9.194;2023-09-12T12:44:52;11.43;;;7.27;;
69410;SDS011;56604;48.652;9.194;2023-09-12T12:47:18;8.63;;;6.40;;
69410;SDS011;56604;48.652;9.194;2023-09-12T12:49:46;17.90;;;6.87;;
69410;SDS011;56604;48.652;9.194;2023-09-12T12:52:16;7.60;;;6.40;;
69410;SDS011;56604;48.652;9.194;2023-09-12T12:54:42;13.00;;;7.87;;
69410;SDS011;56604;48.652;9.194;2023-09-12T12:57:08;18.03;;;7.60;;
69410;SDS011;56604;48.652;9.194;2023-09-12T12:59:37;13.10;;;6.87;;
69410;SDS011;56604;48.652;9.194;2023-09-12T13:02:03;14.30;;;6.60;;
69410;SDS011;56604;48.652;9.194;2023-09-12T13:04:34;14.00;;;7.00;;
69410;SDS011;56604;48.652;9.194;2023-09-12T13:07:00;7.00;;;6.30;;
69410;SDS011;56604;48.652;9.194;2023-09-12T13:09:25;13.60;;;6.50;;
69410;SDS011;56604;48.652;9.194;2023-09-12T13:11:51;6.97;;;5.73;;
69410;SDS011;56604;48.652;9.194;2023-09-12T13:14:17;7.07;;;6.37;;
69410;SDS011;56604;48.652;9.194;2023-09-12T13:16:44;6.47;;;5.90;;
69410;SDS011;56604;48.652;9.194;2023-09-12T13:19:09;11.17;;;6.00;;
69410;SDS011;56604;48.652;9.194;2023-09-12T13:21:36;6.90;;;6.27;;
69410;SDS011;56604;48.652;9.194;2023-09-12T13:24:02;7.57;;;5.90;;
69410;SDS011;56604;48.652;9.194;2023-09-12T13:26:28;8.23;;;6.10;;
69410;SDS011;56604;48.652;9.194;2023-09-12T13:28:53;13.10;;;5.70;;
69410;SDS011;56604;48.652;9.194;2023-09-12T13:31:19;10.00;;;5.87;;
69410;SDS011;56604;48.652;9.194;2023-09-12T13:33:44;7.27;;;6.20;;
69410;SDS011;56604;48.652;9.194;2023-09-12T13:36:09;9.67;;;5.70;;
69410;SDS011;56604;48.652;9.194;2023-09-12T13:38:35;7.43;;;6.50;;
69410;SDS011;56604;48.652;9.194;2023-09-12T13:41:00;6.60;;;6.00;;
69410;SDS011;56604;48.652;9.194;2023-09-12T13:43:25;15.20;;;6.30;;
69410;SDS011;56604;48.652;9.194;2023-09-12T13:45:51;7.67;;;6.60;;
69410;SDS011;56604;48.652;9.194;2023-09-12T13:48:16;8.00;;;6.10;;
69410;SDS011;56604;48.652;9.194;2023-09-12T13:50:41;9.87;;;6.13;;
69410;SDS011;56604;48.652;9.194;2023-09-12T13:53:09;10.93;;;6.10;;
69410;SDS011;56604;48.652;9.194;2023-09-12T13:55:35;7.73;;;6.13;;
69410;SDS011;56604;48.652;9.194;2023-09-12T13:58:04;8.30;;;6.17;;
69410;SDS011;56604;48.652;9.194;2023-09-12T14:00:31;10.23;;;6.40;;
69410;SDS011;56604;48.652;9.194;2023-09-12T14:02:57;10.73;;;6.03;;
69410;SDS011;56604;48.652;9.194;2023-09-12T14:05:22;12.33;;;6.50;;
69410;SDS011;56604;48.652;9.194;2023-09-12T14:07:48;14.30;;;6.60;;
69410;SDS011;56604;48.652;9.194;2023-09-12T14:10:13;15.03;;;6.10;;
69410;SDS011;56604;48.652;9.194;2023-09-12T14:12:38;13.03;;;6.83;;
69410;SDS011;56604;48.652;9.194;2023-09-12T14:15:04;16.77;;;6.90;;
69410;SDS011;56604;48.652;9.194;2023-09-12T14:17:31;9.00;;;7.37;;
69410;SDS011;56604;48.652;9.194;2023-09-12T14:19:57;24.23;;;7.70;;
69410;SDS011;56604;48.652;9.194;2023-09-12T14:22:22;10.00;;;7.33;;
69410;SDS011;56604;48.652;9.194;2023-09-12T14:24:47;11.37;;;7.70;;
69410;SDS011;56604;48.652;9.194;2023-09-12T14:27:13;16.83;;;7.30;;
69410;SDS011;56604;48.652;9.194;2023-09-12T14:29:38;19.43;;;7.97;;
69410;SDS011;56604;48.652;9.194;2023-09-12T14:32:03;30.17;;;6.80;;
69410;SDS011;56604;48.652;9.194;2023-09-12T14:34:29;11.93;;;6.30;;
69410;SDS011;56604;48.652;9.194;2023-09-12T14:36:57;12.40;;;6.60;;
69410;SDS011;56604;48.652;9.194;2023-09-12T14:39:22;12.00;;;7.53;;
69410;SDS011;56604;48.652;9.194;2023-09-12T14:41:48;12.90;;;7.50;;
69410;SDS011;56604;48.652;9.194;2023-09-12T14:44:17;10.17;;;7.67;;
69410;SDS011;56604;48.652;9.194;2023-09-12T14:46:48;15.23;;;7.80;;
69410;SDS011;56604;48.652;9.194;2023-09-12T14:49:14;20.23;;;7.23;;